sensor_id;sensor_type;location;lat;lon;timestamp;pressure;altitude;pressure_sealevel;temperature;humidity
65054;BME280;51639;47.828;35.038;2023-02-21T00:11:09;98751.44;;;3.38;100.00
65054;BME280;51639;47.828;35.038;2023-02-21T00:26:29;98676.19;;;3.49;100.00
65054;BME280;51639;47.828;35.038;2023-02-21T00:41:50;98604.91;;;3.48;100.00
65054;BME280;51639;47.828;35.038;2023-02-21T00:57:11;98573.88;;;3.70;100.00
65054;BME280;51639;47.828;35.038;2023-02-21T01:12:31;98533.34;;;3.65;100.00
65054;BME280;51639;47.828;35.038;2023-02-21T01:27:53;98496.63;;;3.58;100.00
65054;BME280;51639;47.828;35.038;2023-02-21T01:43:19;98448.13;;;3.49;100.00
65054;BME280;51639;47.828;35.038;2023-02-21T01:58:40;98422.19;;;3.62;100.00
65054;BME280;51639;47.828;35.038;2023-02-21T02:44:45;98352.25;;;4.09;100.00
65054;BME280;51639;47.828;35.038;2023-02-21T02:59:50;98329.16;;;4.11;100.00
65054;BME280;51639;47.828;35.038;2023-02-21T03:15:07;98307.81;;;4.40;100.00
65054;BME280;51639;47.828;35.038;2023-02-21T03:30:13;98287.47;;;4.56;100.00
65054;BME280;51639;47.828;35.038;2023-02-21T03:45:15;98250.91;;;4.74;100.00
65054;BME280;51639;47.828;35.038;2023-02-21T04:00:17;98239.22;;;4.81;100.00
65054;BME280;51639;47.828;35.038;2023-02-21T04:15:19;98250.06;;;5.06;100.00
65054;BME280;51639;47.828;35.038;2023-02-21T04:30:21;98232.69;;;5.24;100.00
65054;BME280;51639;47.828;35.038;2023-02-21T04:45:25;98234.09;;;5.28;100.00
65054;BME280;51639;47.828;35.038;2023-02-21T05:00:27;98222.38;;;5.35;100.00
65054;BME280;51639;47.828;35.038;2023-02-21T05:15:29;98207.84;;;5.45;100.00
65054;BME280;51639;47.828;35.038;2023-02-21T05:30:31;98207.44;;;5.59;100.00
65054;BME280;51639;47.828;35.038;2023-02-21T05:45:33;98213.25;;;5.70;100.00
65054;BME280;51639;47.828;35.038;2023-02-21T06:00:35;98221.13;;;6.03;100.00
65054;BME280;51639;47.828;35.038;2023-02-21T06:15:37;98204.94;;;6.28;100.00
65054;BME280;51639;47.828;35.038;2023-02-21T06:30:39;98183.59;;;6.21;100.00
65054;BME280;51639;47.828;35.038;2023-02-21T06:45:41;98169.81;;;6.19;100.00
65054;BME280;51639;47.828;35.038;2023-02-21T07:00:43;98173.06;;;6.48;100.00
65054;BME280;51639;47.828;35.038;2023-02-21T07:15:45;98192.34;;;6.60;100.00
65054;BME280;51639;47.828;35.038;2023-02-21T07:30:48;98205.28;;;7.08;100.00
65054;BME280;51639;47.828;35.038;2023-02-21T07:45:50;98228.59;;;7.46;100.00
65054;BME280;51639;47.828;35.038;2023-02-21T08:00:52;98231.00;;;12.07;100.00
65054;BME280;51639;47.828;35.038;2023-02-21T08:15:57;98245.56;;;13.26;100.00
65054;BME280;51639;47.828;35.038;2023-02-21T08:30:58;98232.72;;;14.80;100.00
65054;BME280;51639;47.828;35.038;2023-02-21T08:46:00;98241.09;;;15.64;100.00
65054;BME280;51639;47.828;35.038;2023-02-21T09:01:03;98247.94;;;13.39;100.00
65054;BME280;51639;47.828;35.038;2023-02-21T09:16:05;98242.00;;;11.98;100.00
65054;BME280;51639;47.828;35.038;2023-02-21T09:31:07;98230.59;;;12.49;100.00
65054;BME280;51639;47.828;35.038;2023-02-21T10:16:43;98220.94;;;12.48;100.00
65054;BME280;51639;47.828;35.038;2023-02-21T10:31:47;98188.81;;;12.32;100.00
65054;BME280;51639;47.828;35.038;2023-02-21T10:47:00;98191.47;;;12.26;100.00
65054;BME280;51639;47.828;35.038;2023-02-21T11:17:28;98224.81;;;9.51;100.00
65054;BME280;51639;47.828;35.038;2023-02-21T11:32:33;98193.34;;;9.63;100.00
65054;BME280;51639;47.828;35.038;2023-02-21T11:47:42;98175.66;;;10.10;100.00
65054;BME280;51639;47.828;35.038;2023-02-21T12:03:13;98168.69;;;14.27;100.00
65054;BME280;51639;47.828;35.038;2023-02-21T12:33:50;98184.38;;;15.92;100.00
65054;BME280;51639;47.828;35.038;2023-02-21T12:49:24;98198.59;;;12.64;100.00
65054;BME280;51639;47.828;35.038;2023-02-21T13:04:54;98224.75;;;12.01;100.00
65054;BME280;51639;47.828;35.038;2023-02-21T15:04:41;98198.81;;;7.99;100.00
65054;BME280;51639;47.828;35.038;2023-02-21T15:19:44;98246.19;;;7.91;100.00
65054;BME280;51639;47.828;35.038;2023-02-21T15:34:46;98281.72;;;7.80;100.00
65054;BME280;51639;47.828;35.038;2023-02-21T16:04:59;98329.28;;;7.34;100.00
65054;BME280;51639;47.828;35.038;2023-02-21T16:20:19;98389.84;;;7.67;100.00
65054;BME280;51639;47.828;35.038;2023-02-21T16:35:23;98433.38;;;7.35;100.00
65054;BME280;51639;47.828;35.038;2023-02-21T16:50:29;98435.44;;;7.31;100.00
65054;BME280;51639;47.828;35.038;2023-02-21T17:05:31;98446.94;;;6.97;100.00
65054;BME280;51639;47.828;35.038;2023-02-21T17:20:36;98454.50;;;6.76;100.00
65054;BME280;51639;47.828;35.038;2023-02-21T17:35:38;98477.13;;;6.41;100.00
65054;BME280;51639;47.828;35.038;2023-02-21T17:50:40;98497.34;;;6.20;100.00
65054;BME280;51639;47.828;35.038;2023-02-21T18:05:42;98522.09;;;6.44;100.00
65054;BME280;51639;47.828;35.038;2023-02-21T18:20:44;98530.91;;;6.32;100.00
65054;BME280;51639;47.828;35.038;2023-02-21T18:35:46;98558.53;;;6.07;100.00
65054;BME280;51639;47.828;35.038;2023-02-21T18:50:48;98574.34;;;6.05;100.00
65054;BME280;51639;47.828;35.038;2023-02-21T19:05:50;98584.38;;;5.88;100.00
65054;BME280;51639;47.828;35.038;2023-02-21T19:20:53;98593.25;;;5.89;100.00
65054;BME280;51639;47.828;35.038;2023-02-21T19:35:55;98614.16;;;5.97;100.00
65054;BME280;51639;47.828;35.038;2023-02-21T19:50:57;98609.72;;;6.07;100.00
65054;BME280;51639;47.828;35.038;2023-02-21T20:06:00;98614.59;;;6.12;100.00
65054;BME280;51639;47.828;35.038;2023-02-21T20:21:04;98632.69;;;5.95;100.00
65054;BME280;51639;47.828;35.038;2023-02-21T20:36:06;98634.75;;;5.71;100.00
65054;BME280;51639;47.828;35.038;2023-02-21T20:51:08;98630.75;;;5.63;100.00
65054;BME280;51639;47.828;35.038;2023-02-21T21:06:10;98632.25;;;5.64;100.00
65054;BME280;51639;47.828;35.038;2023-02-21T21:21:12;98642.78;;;6.07;100.00
65054;BME280;51639;47.828;35.038;2023-02-21T21:36:14;98651.91;;;6.42;100.00
65054;BME280;51639;47.828;35.038;2023-02-21T21:51:16;98675.25;;;6.33;100.00
65054;BME280;51639;47.828;35.038;2023-02-21T22:06:18;98680.91;;;6.22;100.00
65054;BME280;51639;47.828;35.038;2023-02-21T22:21:20;98715.03;;;6.12;100.00
65054;BME280;51639;47.828;35.038;2023-02-21T22:36:22;98723.53;;;6.11;100.00
65054;BME280;51639;47.828;35.038;2023-02-21T22:51:26;98761.25;;;6.11;100.00
65054;BME280;51639;47.828;35.038;2023-02-21T23:06:28;98803.75;;;6.03;100.00
65054;BME280;51639;47.828;35.038;2023-02-21T23:21:30;98812.97;;;5.86;100.00
65054;BME280;51639;47.828;35.038;2023-02-21T23:36:32;98855.63;;;5.88;100.00
65054;BME280;51639;47.828;35.038;2023-02-21T23:51:34;98898.03;;;5.83;100.00
